Time;durP1;ratioP1;P1;durP2;ratioP2;P2;SDS_P1;SDS_P2;PMS_P1;PMS_P2;Temp;Humidity;BMP_temperature;BMP_pressure;BME280_temperature;BME280_humidity;BME280_pressure;Samples;Min_cycle;Max_cycle;Signal;HPM_P1;HPM_P2
2023/01/20 05:11:17;;;;;;;40.50;19.52;;;;;;;-0.44;100.00;99477.66;5559362;32;246820;-87
2023/01/20 05:14:20;;;;;;;33.03;17.67;;;;;;;-0.43;100.00;99479.34;5548314;32;34022;-87
2023/01/20 05:17:22;;;;;;;33.13;17.55;;;;;;;-0.41;100.00;99468.03;5546381;32;33667;-88
2023/01/20 05:20:25;;;;;;;30.00;16.45;;;;;;;-0.33;100.00;99470.50;5545545;32;34636;-88
2023/01/20 05:23:28;;;;;;;30.10;16.65;;;;;;;-0.28;100.00;99467.78;5545725;32;34746;-88
2023/01/20 05:26:32;;;;;;;27.45;14.98;;;;;;;-0.22;100.00;99467.66;5548138;32;34224;-87
2023/01/20 05:29:34;;;;;;;28.60;15.90;;;;;;;-0.18;100.00;99471.94;5545653;32;34516;-86
2023/01/20 05:32:37;;;;;;;29.12;15.68;;;;;;;-0.15;100.00;99477.06;5546031;32;33760;-86
2023/01/20 05:35:40;;;;;;;25.98;14.65;;;;;;;-0.10;100.00;99479.56;5544408;32;34047;-87
2023/01/20 05:38:43;;;;;;;27.33;15.50;;;;;;;-0.17;100.00;99468.44;5544356;32;35028;-87
2023/01/20 05:41:46;;;;;;;25.70;15.00;;;;;;;-0.14;100.00;99480.56;5547238;32;34951;-86
2023/01/20 05:44:49;;;;;;;25.95;14.40;;;;;;;-0.11;100.00;99484.84;5551389;32;33631;-89
2023/01/20 05:47:55;;;;;;;26.33;14.27;;;;;;;-0.08;100.00;99475.22;5546309;32;35088;-92
2023/01/20 05:50:59;;;;;;;26.23;14.50;;;;;;;-0.06;100.00;99481.25;5551214;32;35231;-91
2023/01/20 05:54:02;;;;;;;25.23;14.48;;;;;;;-0.03;100.00;99483.81;5549496;32;34265;-88
2023/01/20 05:57:05;;;;;;;24.58;13.93;;;;;;;0.08;100.00;99482.69;5546047;32;34594;-89
2023/01/20 06:00:08;;;;;;;26.75;15.10;;;;;;;0.13;100.00;99484.34;5546292;32;34312;-87
2023/01/20 06:03:11;;;;;;;22.98;13.85;;;;;;;0.17;100.00;99492.09;5545238;32;34649;-86
2023/01/20 06:06:17;;;;;;;22.83;13.88;;;;;;;0.16;100.00;99495.59;5546991;32;33714;-89
2023/01/20 06:09:20;;;;;;;27.42;14.73;;;;;;;0.19;100.00;99493.78;5547629;32;33799;-89
2023/01/20 06:12:23;;;;;;;21.00;12.77;;;;;;;0.28;100.00;99491.84;5545526;32;34413;-89
2023/01/20 06:15:26;;;;;;;25.02;13.88;;;;;;;0.36;100.00;99493.41;5539361;32;34270;-88
2023/01/20 06:18:29;;;;;;;25.88;14.82;;;;;;;0.40;100.00;99495.06;5545765;32;33566;-88
2023/01/20 06:21:32;;;;;;;25.17;14.52;;;;;;;0.43;100.00;99477.59;5538384;32;33997;-88
2023/01/20 06:24:35;;;;;;;23.77;13.90;;;;;;;0.45;100.00;99479.28;5536307;32;33798;-88
2023/01/20 06:27:38;;;;;;;26.67;14.48;;;;;;;0.57;100.00;99482.53;5536515;32;34477;-86
2023/01/20 06:30:41;;;;;;;24.42;13.98;;;;;;;0.59;100.00;99483.34;5527745;32;34879;-88
2023/01/20 06:33:45;;;;;;;25.25;14.25;;;;;;;0.74;100.00;99483.00;5518618;32;33601;-87
2023/01/20 06:36:47;;;;;;;22.70;13.20;;;;;;;0.69;100.00;99473.56;5516449;32;34154;-87
2023/01/20 06:39:50;;;;;;;25.88;14.95;;;;;;;0.69;100.00;99479.62;5529442;32;34087;-87
2023/01/20 06:42:53;;;;;;;26.15;15.35;;;;;;;0.70;100.00;99477.88;5530569;32;34323;-87
2023/01/20 06:46:02;;;;;;;28.70;15.75;;;;;;;0.77;100.00;99485.53;5543297;32;34024;-87
2023/01/20 06:49:04;;;;;;;26.37;15.57;;;;;;;0.71;100.00;99490.91;5524129;32;35252;-88
2023/01/20 06:52:08;;;;;;;24.63;14.40;;;;;;;0.82;100.00;99489.78;5525717;32;33786;-88
2023/01/20 06:55:11;;;;;;;25.25;13.93;;;;;;;0.83;100.00;99496.72;5521922;32;33987;-88
2023/01/20 06:58:15;;;;;;;25.80;14.30;;;;;;;0.84;100.00;99504.53;5523845;32;34326;-89
2023/01/20 07:01:24;;;;;;;25.15;14.82;;;;;;;0.79;100.00;99507.25;5530003;32;34048;-89
2023/01/20 07:04:27;;;;;;;26.67;15.05;;;;;;;0.79;100.00;99509.84;5513641;32;33935;-89
2023/01/20 07:07:30;;;;;;;25.55;14.50;;;;;;;0.86;100.00;99521.00;5527025;32;34578;-89
2023/01/20 07:10:33;;;;;;;23.98;14.07;;;;;;;0.95;100.00;99514.69;5531548;32;35111;-88
2023/01/20 07:13:37;;;;;;;25.80;14.35;;;;;;;0.99;100.00;99508.53;5524181;32;34460;-88
2023/01/20 07:16:40;;;;;;;27.65;16.58;;;;;;;1.06;100.00;99512.69;5522259;32;35137;-88
2023/01/20 07:19:43;;;;;;;29.20;15.95;;;;;;;1.06;100.00;99520.53;5523488;32;34032;-89
2023/01/20 07:22:47;;;;;;;27.45;15.25;;;;;;;0.99;100.00;99521.56;5536274;32;34622;-90
2023/01/20 07:29:35;;;;;;;25.67;14.45;;;;;;;1.02;100.00;99531.09;5620615;26;20108;-90
2023/01/20 07:32:58;;;;;;;27.10;15.05;;;;;;;1.04;100.00;99535.37;5537041;32;33586;-90
2023/01/20 07:36:03;;;;;;;25.17;15.38;;;;;;;1.09;100.00;99527.44;5550100;32;34752;-90
2023/01/20 07:46:29;;;;;;;25.90;14.87;;;;;;;0.92;100.00;99543.53;4085064;29;20099;-86
2023/01/20 07:49:32;;;;;;;25.50;14.75;;;;;;;1.00;100.00;99538.97;5542863;32;33957;-88
2023/01/20 07:52:36;;;;;;;25.40;14.95;;;;;;;0.92;100.00;99533.91;5549621;32;34299;-87
2023/01/20 07:55:39;;;;;;;28.90;15.15;;;;;;;0.94;100.00;99536.50;5550316;32;33901;-86
2023/01/20 07:58:45;;;;;;;27.98;15.48;;;;;;;0.97;100.00;99546.88;5548642;32;34381;-86
2023/01/20 08:01:48;;;;;;;25.92;14.80;;;;;;;0.91;100.00;99539.19;5551237;32;34009;-87
2023/01/20 08:04:51;;;;;;;25.85;14.50;;;;;;;0.79;100.00;99551.63;5551628;32;34272;-87
2023/01/20 08:07:54;;;;;;;28.55;16.23;;;;;;;0.73;100.00;99558.72;5550149;32;34091;-85
2023/01/20 08:10:57;;;;;;;26.52;15.65;;;;;;;0.78;100.00;99557.75;5558587;32;34205;-87
2023/01/20 08:14:00;;;;;;;27.98;15.68;;;;;;;0.64;100.00;99559.78;5557277;32;33930;-87
2023/01/20 08:17:06;;;;;;;29.08;15.82;;;;;;;0.67;100.00;99559.75;5560648;32;34228;-88
2023/01/20 08:20:10;;;;;;;28.62;15.93;;;;;;;0.70;100.00;99564.88;5543665;32;34516;-87
2023/01/20 08:23:12;;;;;;;30.45;15.30;;;;;;;0.74;100.00;99565.66;5552564;32;34907;-88
2023/01/20 08:26:15;;;;;;;27.67;15.05;;;;;;;0.75;100.00;99564.81;5555840;32;34160;-92
2023/01/20 08:29:18;;;;;;;26.40;15.18;;;;;;;0.78;100.00;99562.97;5557147;32;34768;-92
2023/01/20 08:32:21;;;;;;;23.62;13.90;;;;;;;0.84;100.00;99568.97;5563492;32;34840;-92
2023/01/20 08:35:25;;;;;;;22.50;13.23;;;;;;;0.88;100.00;99565.38;5564268;32;34662;-93
2023/01/20 08:38:28;;;;;;;24.98;14.68;;;;;;;0.88;100.00;99563.62;5557502;32;34786;-87
2023/01/20 08:41:33;;;;;;;21.50;13.40;;;;;;;0.95;100.00;99561.72;5561749;32;34012;-87
2023/01/20 08:44:36;;;;;;;25.08;14.30;;;;;;;1.01;100.00;99564.19;5560765;32;34052;-87
2023/01/20 08:47:44;;;;;;;24.37;13.45;;;;;;;1.35;100.00;99559.91;5560107;32;35245;-86
2023/01/20 08:50:47;;;;;;;24.67;14.15;;;;;;;1.58;100.00;99563.69;5554483;32;34893;-86
2023/01/20 08:53:51;;;;;;;21.05;12.40;;;;;;;1.67;100.00;99566.09;5554077;32;34147;-85
2023/01/20 08:56:53;;;;;;;24.63;13.45;;;;;;;1.77;100.00;99563.22;5553774;32;34491;-87
2023/01/20 08:59:56;;;;;;;23.50;13.40;;;;;;;1.58;100.00;99563.69;5549411;32;34000;-87
2023/01/20 09:02:59;;;;;;;21.77;13.25;;;;;;;1.36;100.00;99573.84;5552903;32;34224;-87
2023/01/20 09:06:06;;;;;;;23.05;13.25;;;;;;;1.29;100.00;99562.66;5552875;32;34157;-87
2023/01/20 09:09:10;;;;;;;22.87;13.35;;;;;;;1.50;100.00;99565.66;5560060;32;33991;-87
2023/01/20 09:12:13;;;;;;;23.23;13.23;;;;;;;1.47;100.00;99574.44;5570013;32;33923;-86
2023/01/20 09:15:16;;;;;;;23.73;13.48;;;;;;;1.43;100.00;99578.00;5561896;32;33946;-87
2023/01/20 09:18:19;;;;;;;24.37;13.15;;;;;;;1.46;100.00;99577.94;5566669;32;34638;-86
2023/01/20 09:21:22;;;;;;;19.83;12.13;;;;;;;1.42;100.00;99571.94;5574893;32;33887;-86
2023/01/20 09:24:25;;;;;;;22.25;12.80;;;;;;;1.50;100.00;99576.13;5567307;32;35280;-85
2023/01/20 09:27:28;;;;;;;24.98;14.15;;;;;;;1.49;100.00;99564.78;5562156;32;34222;-85
2023/01/20 09:30:31;;;;;;;21.48;12.82;;;;;;;1.35;100.00;99559.91;5560938;32;34861;-88
2023/01/20 09:33:37;;;;;;;24.15;14.07;;;;;;;1.25;100.00;99548.81;5563472;32;35066;-87
2023/01/20 09:36:40;;;;;;;21.20;12.90;;;;;;;1.26;100.00;99544.47;5564800;32;35115;-87
2023/01/20 09:47:18;;;;;;;28.65;14.18;;;;;;;1.26;100.00;99513.94;5510006;32;35210;-88
2023/01/20 09:54:22;;;;;;;26.37;14.82;;;;;;;1.22;100.00;99514.94;5579645;26;34167;-90
2023/01/20 10:05:06;;;;;;;23.12;13.55;;;;;;;1.33;100.00;99492.00;796256;29;21267;-93
2023/01/20 10:08:31;;;;;;;25.37;14.32;;;;;;;1.44;100.00;99481.28;5550218;32;31876;-90
2023/01/20 10:11:42;;;;;;;24.85;14.43;;;;;;;1.45;100.00;99474.28;5577756;32;34197;-90
2023/01/20 10:15:08;;;;;;;24.23;13.82;;;;;;;1.54;100.00;99458.34;5567121;32;34089;-89
2023/01/20 10:18:35;;;;;;;25.60;14.50;;;;;;;1.62;100.00;99455.53;5549552;32;34803;-88
2023/01/20 10:21:53;;;;;;;23.35;13.13;;;;;;;1.81;100.00;99440.16;5539957;32;35589;-88
2023/01/20 10:25:13;;;;;;;27.00;12.93;;;;;;;1.86;100.00;99433.06;5556636;32;35276;-88
2023/01/20 10:28:28;;;;;;;25.88;13.02;;;;;;;1.94;100.00;99438.06;5562837;32;34119;-88
2023/01/20 10:31:47;;;;;;;24.52;13.30;;;;;;;1.95;100.00;99436.28;5557746;32;34143;-89
2023/01/20 10:34:56;;;;;;;22.50;12.57;;;;;;;2.02;100.00;99436.06;5545928;32;35214;-92
2023/01/20 10:37:58;;;;;;;20.70;12.30;;;;;;;2.08;100.00;99442.03;5557426;32;34186;-92
2023/01/20 10:41:13;;;;;;;24.77;12.55;;;;;;;2.07;100.00;99445.56;5547733;32;33748;-90
2023/01/20 10:44:20;;;;;;;19.20;12.07;;;;;;;2.18;100.00;99442.63;5554710;32;33709;-90
2023/01/20 10:51:24;;;;;;;21.00;12.37;;;;;;;2.30;100.00;99457.94;997028;26;20381;-89
2023/01/20 10:54:47;;;;;;;22.48;12.18;;;;;;;2.38;100.00;99462.94;5561080;32;33393;-89
2023/01/20 11:23:59;;;;;;;22.90;12.95;;;;;;;2.34;100.00;99459.56;733118;30;20385;-89
2023/01/20 11:27:05;;;;;;;22.70;13.13;;;;;;;2.36;100.00;99444.66;5583314;26;32029;-89
2023/01/20 11:30:22;;;;;;;23.48;12.60;;;;;;;2.30;100.00;99447.47;5552753;32;34231;-89
2023/01/20 11:33:27;;;;;;;23.15;13.65;;;;;;;2.28;100.00;99442.28;5544214;32;33427;-87
2023/01/20 11:36:29;;;;;;;21.10;12.98;;;;;;;2.28;100.00;99436.22;5550703;32;33874;-88
2023/01/20 11:39:54;;;;;;;22.52;13.02;;;;;;;2.23;100.00;99425.00;5548403;32;34775;-87
2023/01/20 11:42:56;;;;;;;24.60;13.25;;;;;;;2.22;100.00;99416.28;5551501;32;34313;-88
2023/01/20 11:46:11;;;;;;;23.87;13.40;;;;;;;2.39;100.00;99413.19;5562385;32;34185;-90
2023/01/20 11:49:21;;;;;;;22.83;12.93;;;;;;;2.75;100.00;99411.16;5551378;32;32930;-88
2023/01/20 11:56:30;;;;;;;23.10;12.93;;;;;;;2.62;100.00;99405.50;5533797;32;33806;-90
2023/01/20 11:59:36;;;;;;;19.67;12.00;;;;;;;2.48;100.00;99409.41;5531108;32;34244;-87
2023/01/20 12:02:40;;;;;;;19.60;11.35;;;;;;;2.48;100.00;99406.78;5529080;32;34604;-89
2023/01/20 12:06:07;;;;;;;21.35;12.30;;;;;;;2.49;100.00;99394.53;5529950;32;33949;-88
2023/01/20 12:09:14;;;;;;;22.10;11.75;;;;;;;2.50;100.00;99404.97;5532376;32;33808;-89
2023/01/20 12:12:52;;;;;;;18.90;11.12;;;;;;;2.48;100.00;99400.69;5527215;32;34845;-89
2023/01/20 12:16:00;;;;;;;23.42;13.38;;;;;;;2.58;100.00;99399.50;5514586;32;33773;-89
2023/01/20 12:19:10;;;;;;;19.37;11.70;;;;;;;2.31;100.00;99404.69;5524928;32;34134;-90
2023/01/20 12:22:20;;;;;;;18.15;10.02;;;;;;;2.36;100.00;99400.16;5530333;32;34563;-88
2023/01/20 12:25:42;;;;;;;18.60;11.12;;;;;;;2.48;100.00;99401.56;5537117;32;34478;-92
2023/01/20 12:29:07;;;;;;;14.27;9.23;;;;;;;2.42;100.00;99410.44;5527191;32;34236;-89
2023/01/20 12:32:10;;;;;;;11.35;7.12;;;;;;;2.49;100.00;99413.75;5527717;32;34265;-87
2023/01/20 12:35:14;;;;;;;9.55;6.30;;;;;;;2.47;100.00;99412.06;5526144;32;34521;-88
2023/01/20 12:38:20;;;;;;;10.07;7.07;;;;;;;2.37;100.00;99403.66;5536335;32;35183;-88
2023/01/20 12:42:00;;;;;;;11.63;7.43;;;;;;;2.35;100.00;99406.31;5533476;32;33510;-88
2023/01/20 12:45:17;;;;;;;10.52;6.93;;;;;;;2.30;100.00;99400.34;5532163;32;33856;-88
2023/01/20 12:48:50;;;;;;;9.73;6.50;;;;;;;2.45;100.00;99413.87;5525673;32;34809;-90
2023/01/20 12:52:01;;;;;;;10.73;6.60;;;;;;;2.23;100.00;99409.31;5545159;32;34201;-89
2023/01/20 12:56:02;;;;;;;10.82;6.75;;;;;;;2.19;100.00;99403.31;5515399;32;35260;-88
2023/01/20 12:59:15;;;;;;;9.07;6.43;;;;;;;2.14;100.00;99407.84;5490225;32;32440;-89
2023/01/20 13:02:27;;;;;;;13.73;8.93;;;;;;;2.04;100.00;99411.63;5531440;32;35307;-88
2023/01/20 13:05:40;;;;;;;24.12;13.20;;;;;;;2.12;100.00;99413.09;5537092;32;34111;-88
2023/01/20 13:08:48;;;;;;;27.65;14.70;;;;;;;1.78;100.00;99415.88;5543695;32;35367;-87
2023/01/20 13:12:04;;;;;;;26.62;15.60;;;;;;;1.77;100.00;99422.88;5540820;32;34327;-88
2023/01/20 13:15:25;;;;;;;27.85;14.43;;;;;;;1.55;100.00;99431.31;5546764;32;34127;-88
2023/01/20 13:18:49;;;;;;;24.30;14.23;;;;;;;1.52;100.00;99425.31;5538670;32;33941;-88
2023/01/20 13:22:01;;;;;;;25.62;14.55;;;;;;;1.50;100.00;99427.97;5521813;32;36292;-88
2023/01/20 13:25:15;;;;;;;25.35;14.55;;;;;;;1.32;100.00;99432.78;5527019;32;35165;-88
2023/01/20 13:28:50;;;;;;;29.12;16.37;;;;;;;1.26;100.00;99429.50;5532925;32;34307;-87
2023/01/20 13:31:55;;;;;;;29.00;16.42;;;;;;;0.99;100.00;99437.13;5525043;32;35130;-88
2023/01/20 13:35:01;;;;;;;32.75;17.52;;;;;;;0.84;100.00;99444.47;5528374;32;34083;-88
2023/01/20 13:38:29;;;;;;;29.10;17.62;;;;;;;0.83;100.00;99429.69;5519986;32;33948;-87
2023/01/20 13:41:49;;;;;;;33.08;17.37;;;;;;;0.75;100.00;99431.66;5529551;32;34485;-89
2023/01/20 13:45:16;;;;;;;32.63;17.20;;;;;;;0.46;100.00;99436.63;5529653;32;33801;-88
2023/01/20 13:48:22;;;;;;;30.05;16.73;;;;;;;0.48;100.00;99434.88;5530891;32;34283;-87
2023/01/20 13:51:31;;;;;;;33.15;18.58;;;;;;;0.47;100.00;99432.28;5527150;32;34598;-87
2023/01/20 13:54:41;;;;;;;34.50;18.67;;;;;;;0.26;100.00;99447.56;5526258;32;33973;-87
2023/01/20 13:57:44;;;;;;;30.70;17.65;;;;;;;0.18;100.00;99447.72;5535354;32;34346;-90
2023/01/20 14:00:50;;;;;;;35.22;18.77;;;;;;;0.16;100.00;99435.59;5536976;32;33910;-88
2023/01/20 14:04:13;;;;;;;28.12;17.37;;;;;;;0.16;100.00;99438.22;5543451;32;34650;-88
2023/01/20 14:07:22;;;;;;;36.40;20.62;;;;;;;-0.07;100.00;99445.63;5530928;32;34324;-88
2023/01/20 14:10:26;;;;;;;39.03;20.70;;;;;;;-0.16;100.00;99453.63;5532023;32;33834;-88
2023/01/20 14:13:29;;;;;;;39.47;21.70;;;;;;;-0.25;100.00;99459.87;5526145;32;34190;-88
2023/01/20 14:16:32;;;;;;;41.47;21.92;;;;;;;-0.25;100.00;99459.03;5525723;32;34540;-88
2023/01/20 14:19:36;;;;;;;44.15;22.33;;;;;;;-0.33;100.00;99456.59;5539487;32;34419;-87
2023/01/20 14:22:39;;;;;;;49.08;24.65;;;;;;;-0.29;100.00;99463.47;5544785;32;33838;-88
2023/01/20 14:25:41;;;;;;;50.33;24.77;;;;;;;-0.39;100.00;99460.19;5536969;32;35082;-87
2023/01/20 14:28:47;;;;;;;50.00;26.05;;;;;;;-0.39;100.00;99461.91;5536135;32;34527;-87
2023/01/20 14:31:50;;;;;;;51.88;27.65;;;;;;;-0.43;100.00;99466.34;5534453;32;33984;-87
2023/01/20 14:34:54;;;;;;;52.75;26.15;;;;;;;-0.45;100.00;99465.50;5538057;32;34589;-85
2023/01/20 14:37:57;;;;;;;50.75;24.73;;;;;;;-0.49;100.00;99456.91;5533966;32;33919;-85
2023/01/20 14:41:00;;;;;;;46.72;24.63;;;;;;;-0.37;100.00;99461.00;5535154;32;33900;-85
2023/01/20 14:44:15;;;;;;;43.42;23.17;;;;;;;-0.39;100.00;99464.53;5536271;32;33746;-85
2023/01/20 14:47:20;;;;;;;47.00;23.38;;;;;;;-0.35;100.00;99474.84;5533980;32;35367;-86
2023/01/20 14:50:24;;;;;;;43.40;22.83;;;;;;;-0.47;100.00;99472.47;5534560;32;34363;-85
2023/01/20 14:53:27;;;;;;;45.38;23.05;;;;;;;-0.54;100.00;99479.56;5534985;32;34115;-84
2023/01/20 14:56:30;;;;;;;41.67;21.60;;;;;;;-0.56;100.00;99482.19;5536040;32;33814;-86
2023/01/20 14:59:33;;;;;;;44.40;23.30;;;;;;;-0.61;100.00;99477.97;5523559;32;34134;-85
2023/01/20 15:02:37;;;;;;;42.90;21.17;;;;;;;-0.65;100.00;99479.78;5539432;32;33621;-85
2023/01/20 15:05:53;;;;;;;41.55;21.70;;;;;;;-0.61;100.00;99478.81;5535798;32;34594;-85
2023/01/20 15:08:56;;;;;;;39.72;20.27;;;;;;;-0.66;100.00;99477.19;5535871;32;34231;-86
2023/01/20 15:12:41;;;;;;;41.47;21.67;;;;;;;-0.71;100.00;99490.28;5520755;32;33867;-85
2023/01/20 15:15:44;;;;;;;38.95;19.70;;;;;;;-0.69;100.00;99489.34;5534698;32;34526;-85
2023/01/20 15:19:12;;;;;;;36.47;19.98;;;;;;;-0.60;100.00;99487.50;5540523;32;34985;-89
2023/01/20 15:22:19;;;;;;;38.83;19.60;;;;;;;-0.56;100.00;99500.44;5536800;32;34188;-83
2023/01/20 15:25:22;;;;;;;40.78;19.90;;;;;;;-0.60;100.00;99506.56;5532818;32;34410;-87
2023/01/20 15:28:27;;;;;;;39.67;21.37;;;;;;;-0.54;100.00;99503.00;5534309;32;34692;-87
2023/01/20 15:31:30;;;;;;;39.30;20.77;;;;;;;-0.63;100.00;99509.25;5532677;32;34622;-87
2023/01/20 15:34:33;;;;;;;36.25;18.58;;;;;;;-0.59;100.00;99499.63;5530117;32;33424;-86
2023/01/20 15:37:36;;;;;;;39.53;20.37;;;;;;;-0.63;100.00;99501.44;5532023;32;33824;-87
2023/01/20 15:40:39;;;;;;;40.33;21.35;;;;;;;-0.68;100.00;99504.13;5530922;32;34154;-86
2023/01/20 15:43:44;;;;;;;40.30;19.87;;;;;;;-0.68;100.00;99503.25;5533994;32;33926;-86
2023/01/20 15:46:46;;;;;;;38.63;19.73;;;;;;;-0.66;100.00;99506.69;5540630;32;34115;-87
2023/01/20 15:49:49;;;;;;;36.88;19.20;;;;;;;-0.65;100.00;99511.03;5542570;32;34130;-87
2023/01/20 15:52:52;;;;;;;36.90;18.70;;;;;;;-0.49;100.00;99515.94;5540277;32;33907;-85
2023/01/20 15:55:55;;;;;;;37.90;20.15;;;;;;;-0.47;100.00;99515.03;5535927;32;35086;-86
2023/01/20 15:58:58;;;;;;;37.35;19.00;;;;;;;-0.49;100.00;99498.59;5538339;32;34404;-85
2023/01/20 16:02:02;;;;;;;34.25;18.00;;;;;;;-0.59;100.00;99510.94;5533634;32;34492;-86
2023/01/20 16:05:05;;;;;;;33.97;18.62;;;;;;;-0.46;100.00;99521.13;5543693;32;36112;-85
2023/01/20 16:08:14;;;;;;;38.45;19.27;;;;;;;-0.53;100.00;99516.88;5538389;32;34214;-86
2023/01/20 16:11:18;;;;;;;35.67;18.75;;;;;;;-0.64;100.00;99510.12;5533114;32;33928;-86
2023/01/20 16:14:21;;;;;;;36.25;18.87;;;;;;;-0.69;100.00;99518.00;5531620;32;33870;-86
2023/01/20 16:17:28;;;;;;;35.67;18.73;;;;;;;-0.46;100.00;99526.34;5529669;32;34519;-86
2023/01/20 16:20:33;;;;;;;38.45;20.02;;;;;;;-0.60;100.00;99526.56;5534866;32;34549;-86
2023/01/20 16:23:37;;;;;;;36.30;19.95;;;;;;;-0.59;100.00;99523.94;5529896;32;33979;-86
2023/01/20 16:26:44;;;;;;;33.75;18.50;;;;;;;-0.70;100.00;99531.09;5532025;32;34155;-87
2023/01/20 16:29:48;;;;;;;35.88;18.80;;;;;;;-0.77;100.00;99514.69;5532053;32;33604;-86
2023/01/20 16:32:51;;;;;;;35.83;19.62;;;;;;;-0.84;100.00;99511.31;5532923;32;34259;-86
2023/01/20 16:35:55;;;;;;;39.38;19.45;;;;;;;-0.80;100.00;99516.50;5532798;32;33870;-86
2023/01/20 16:38:57;;;;;;;35.95;18.85;;;;;;;-0.92;100.00;99523.63;5533034;32;34376;-85
2023/01/20 16:42:00;;;;;;;37.17;19.25;;;;;;;-0.88;100.00;99530.50;5531757;32;34349;-86
2023/01/20 16:45:03;;;;;;;33.92;19.42;;;;;;;-0.93;100.00;99513.22;5533686;32;33833;-86
2023/01/20 16:48:08;;;;;;;36.42;18.05;;;;;;;-0.99;100.00;99520.28;5531293;32;34231;-86
2023/01/20 16:51:19;;;;;;;34.05;19.83;;;;;;;-0.92;100.00;99518.41;5535255;32;34173;-85
